FA35 weather

Lindbergh's Landing Airport
Miami, Florida, United States

Public forecast

Using degrees Fahrenheit for public forecast. Weather courtesy of forecast.io.

Closest aviation weather report (METAR) to Lindbergh's Landing Airport

Closest report is Miami Executive Airport, 3.5 nm (6.4 km) ENE. Retrieved 2020/07/12 18:53 UTC (30 minutes ago):

KTMB 121853Z A2996 RMK AO2 SLP146

Closest aviation forecast (TAF) to Lindbergh's Landing Airport

Closest forecast is Miami Executive Airport, 3.5 nm (6.4 km) ENE. Retrieved 2020/07/12 18:22 UTC (1 hour ago):

TAF KTMB 121720Z 1218/1318 22011KT P6SM VCTS SCT025 SCT035CB BKN150 FM130000 21005KT P6SM SCT050 BKN100 FM131500 20008KT P6SM SCT040 SCT250 FM131700 21011KT P6SM VCTS SCT025 SCT035CB BKN150